| time (UTC) | temp F | wind direction | speed MPH | gust MPH | rain 1hr in | rain 24hr in | rain mn in | humidity % | barometer mb |
| 20260510071404 | 80 | 273 | 3.0 | 6.0 | 0.00 | 0.00 | 0.00 | 17 | 1007.9 |
| 20260510070405 | 82 | 262 | 0.0 | 3.0 | 0.00 | 0.00 | 0.00 | 16 | 1007.8 |
| 20260510064404 | 85 | 262 | 1.0 | 3.0 | 0.00 | 0.00 | 0.00 | 13 | 1007.6 |
| 20260510061404 | 85 | 261 | 2.0 | 3.0 | 0.00 | 0.00 | 0.00 | 14 | 1007.5 |
| 20260510060404 | 85 | 261 | 1.0 | 3.0 | 0.00 | 0.00 | 0.00 | 14 | 1007.4 |
| 20260510054404 | 86 | 261 | 2.0 | 3.0 | 0.00 | 0.00 | 0.00 | 14 | 1007.3 |
| 20260510053404 | 87 | 261 | 2.0 | 6.0 | 0.00 | 0.00 | 0.00 | 14 | 1007.4 |
| 20260510051404 | 87 | 261 | 2.0 | 3.0 | 0.00 | 0.00 | 0.00 | 13 | 1007.4 |
| 20260510050404 | 87 | 261 | 2.0 | 3.0 | 0.00 | 0.00 | 0.00 | 13 | 1007.3 |
| 20260510044404 | 89 | 261 | 2.0 | 7.0 | 0.00 | 0.00 | 0.00 | 12 | 1007.1 |
| 20260510043405 | 90 | 260 | 3.0 | 7.0 | 0.00 | 0.00 | 0.00 | 12 | 1007.0 |
| 20260510041404 | 91 | 254 | 3.0 | 7.0 | 0.00 | 0.00 | 0.00 | 12 | 1006.7 |
| 20260510040405 | 91 | 259 | 3.0 | 7.0 | 0.00 | 0.00 | 0.00 | 11 | 1006.6 |
| 20260510034405 | 92 | 238 | 3.0 | 6.0 | 0.00 | 0.00 | 0.00 | 12 | 1006.4 |
| 20260510033406 | 92 | 240 | 3.0 | 10.0 | 0.00 | 0.00 | 0.00 | 12 | 1006.3 |
| 20260510031404 | 93 | 250 | 5.0 | 10.0 | 0.00 | 0.00 | 0.00 | 12 | 1006.0 |
| 20260510030404 | 94 | 237 | 4.0 | 10.0 | 0.00 | 0.00 | 0.00 | 11 | 1006.0 |
| 20260510024405 | 95 | 234 | 3.0 | 12.0 | 0.00 | 0.00 | 0.00 | 11 | 1005.7 |
| 20260510023405 | 96 | 250 | 6.0 | 10.0 | 0.00 | 0.00 | 0.00 | 10 | 1005.6 |
| 20260510021405 | 97 | 229 | 5.0 | 10.0 | 0.00 | 0.00 | 0.00 | 10 | 1005.4 |
| 20260510020405 | 98 | 225 | 5.0 | 13.0 | 0.00 | 0.00 | 0.00 | 10 | 1005.3 |
| 20260510014405 | 99 | 224 | 6.0 | 12.0 | 0.00 | 0.00 | 0.00 | 9 | 1005.3 |
| 20260510010404 | 101 | 233 | 8.0 | 13.0 | 0.00 | 0.00 | 0.00 | 8 | 1005.3 |
| 20260510004405 | 103 | 257 | 7.0 | 15.0 | 0.00 | 0.00 | 0.00 | 8 | 1005.4 |
| 20260510003406 | 103 | 268 | 7.0 | 15.0 | 0.00 | 0.00 | 0.00 | 9 | 1005.4 |
| 20260510000404 | 105 | 219 | 4.0 | 14.0 | 0.00 | 0.00 | 0.00 | 9 | 1005.5 |
| 20260509234404 | 106 | 246 | 7.0 | 14.0 | 0.00 | 0.00 | 0.00 | 8 | 1005.8 |
| 20260509233404 | 106 | 203 | 7.0 | 12.0 | 0.00 | 0.00 | 0.00 | 9 | 1005.9 |
| 20260509231404 | 107 | 261 | 6.0 | 12.0 | 0.00 | 0.00 | 0.00 | 9 | 1005.9 |
| 20260509230405 | 107 | 237 | 7.0 | 13.0 | 0.00 | 0.00 | 0.00 | 9 | 1006.0 |
| 20260509224403 | 107 | 240 | 7.0 | 12.0 | 0.00 | 0.00 | 0.00 | 9 | 1006.2 |
| 20260509223405 | 107 | 236 | 6.0 | 14.0 | 0.00 | 0.00 | 0.00 | 8 | 1006.3 |
| 20260509221404 | 108 | 223 | 7.0 | 13.0 | 0.00 | 0.00 | 0.00 | 8 | 1006.6 |
| 20260509214404 | 107 | 254 | 10.0 | 16.0 | 0.00 | 0.00 | 0.00 | 8 | 1007.1 |
| 20260509210404 | 107 | 201 | 8.0 | 15.0 | 0.00 | 0.00 | 0.00 | 9 | 1007.6 |
| 20260509204404 | 106 | 238 | 7.0 | 13.0 | 0.00 | 0.00 | 0.00 | 10 | 1008.1 |
| 20260509203404 | 106 | 261 | 4.0 | 12.0 | 0.00 | 0.00 | 0.00 | 10 | 1008.3 |
| 20260509201404 | 104 | 248 | 5.0 | 12.0 | 0.00 | 0.00 | 0.00 | 11 | 1008.5 |
| 20260509200405 | 104 | 277 | 6.0 | 10.0 | 0.00 | 0.00 | 0.00 | 10 | 1008.8 |
| 20260509194405 | 103 | 273 | 4.0 | 10.0 | 0.00 | 0.00 | 0.00 | 11 | 1009.0 |
| 20260509193404 | 102 | 283 | 3.0 | 9.0 | 0.00 | 0.00 | 0.00 | 11 | 1009.2 |
| 20260509191404 | 102 | 158 | 3.0 | 9.0 | 0.00 | 0.00 | 0.00 | 12 | 1009.4 |
| 20260509190403 | 101 | 240 | 5.0 | 9.0 | 0.00 | 0.00 | 0.00 | 12 | 1009.5 |
| 20260509184404 | 100 | 222 | 2.0 | 8.0 | 0.00 | 0.00 | 0.00 | 13 | 1009.7 |
| 20260509183404 | 100 | 204 | 3.0 | 6.0 | 0.00 | 0.00 | 0.00 | 14 | 1009.8 |
| 20260509181405 | 99 | 213 | 3.0 | 7.0 | 0.00 | 0.00 | 0.00 | 14 | 1010.2 |
| 20260509180404 | 98 | 216 | 3.0 | 6.0 | 0.00 | 0.00 | 0.00 | 14 | 1010.3 |
| 20260509174405 | 96 | 224 | 2.0 | 5.0 | 0.00 | 0.00 | 0.00 | 15 | 1010.4 |
| 20260509173404 | 95 | 221 | 2.0 | 6.0 | 0.00 | 0.00 | 0.00 | 15 | 1010.4 |
| 20260509171405 | 94 | 218 | 2.0 | 6.0 | 0.00 | 0.00 | 0.00 | 17 | 1010.6 |
| 20260509170406 | 92 | 211 | 2.0 | 5.0 | 0.00 | 0.00 | 0.00 | 17 | 1010.7 |
| 20260509164404 | 90 | 209 | 2.0 | 5.0 | 0.00 | 0.00 | 0.00 | 19 | 1010.7 |
| 20260509163404 | 90 | 210 | 1.0 | 6.0 | 0.00 | 0.00 | 0.00 | 19 | 1010.6 |
| 20260509161404 | 88 | 230 | 2.0 | 5.0 | 0.00 | 0.00 | 0.00 | 18 | 1010.7 |
| 20260509160405 | 87 | 230 | 2.0 | 10.0 | 0.00 | 0.00 | 0.00 | 19 | 1010.7 |
| 20260509154404 | 85 | 232 | 3.0 | 7.0 | 0.00 | 0.00 | 0.00 | 21 | 1010.7 |
| 20260509153406 | 84 | 229 | 3.0 | 9.0 | 0.00 | 0.00 | 0.00 | 21 | 1010.6 |
| 20260509151404 | 81 | 222 | 2.0 | 3.0 | 0.00 | 0.00 | 0.00 | 25 | 1010.6 |
| 20260509150403 | 81 | 218 | 2.0 | 3.0 | 0.00 | 0.00 | 0.00 | 22 | 1010.6 |
| 20260509144404 | 79 | 218 | 0.0 | 2.0 | 0.00 | 0.00 | 0.00 | 24 | 1010.4 |
| 20260509143405 | 77 | 218 | 0.0 | 3.0 | 0.00 | 0.00 | 0.00 | 29 | 1010.3 |
| 20260509141405 | 74 | 218 | 0.0 | 0.0 | 0.00 | 0.00 | 0.00 | 32 | 1010.2 |
| 20260509140404 | 74 | 218 | 0.0 | 3.0 | 0.00 | 0.00 | 0.00 | 32 | 1010.2 |
| 20260509133405 | 71 | 218 | 0.0 | 2.0 | 0.00 | 0.00 | 0.00 | 31 | 1009.9 |
| 20260509131405 | 70 | 218 | 1.0 | 2.0 | 0.00 | 0.00 | 0.00 | 28 | 1009.6 |
| 20260509130405 | 71 | 218 | 1.0 | 3.0 | 0.00 | 0.00 | 0.00 | 27 | 1009.5 |